Terminal Aerodrome Forecast
Issued by NWS Sioux Falls, SD

Home | Current Version | Previous Version | Graphics & Text | Print | Product List | Glossary Off
Versions: 1 2 3 4 5 6 7 8 9 10 11 12 13

890
FTUS43 KFSD 280523
TAFFSD
TAF
KFSD 280523Z 2806/2906 13005KT P6SM SCT100 BKN250
     FM281000 VRB03KT 4SM BR SCT150
     FM281200 VRB03KT 2SM BR FEW030
     FM281500 08004KT P6SM SCT250
     FM282000 10009KT P6SM BKN200=

USA.gov is the U.S. government's official web portal to all federal, state and local government web resources and services.